sensor_id;sensor_type;location;lat;lon;timestamp;P1;durP1;ratioP1;P2;durP2;ratioP2
40204;SDS011;26963;42.666;23.366;2024-02-23T00:00:31;17.08;;;13.07;;
40204;SDS011;26963;42.666;23.366;2024-02-23T00:02:57;16.90;;;11.93;;
40204;SDS011;26963;42.666;23.366;2024-02-23T00:05:23;16.55;;;11.30;;
40204;SDS011;26963;42.666;23.366;2024-02-23T00:07:49;16.45;;;11.52;;
40204;SDS011;26963;42.666;23.366;2024-02-23T00:10:15;19.05;;;13.60;;
40204;SDS011;26963;42.666;23.366;2024-02-23T00:12:41;17.38;;;12.18;;
40204;SDS011;26963;42.666;23.366;2024-02-23T00:15:07;14.65;;;11.25;;
40204;SDS011;26963;42.666;23.366;2024-02-23T00:17:32;15.00;;;11.75;;
40204;SDS011;26963;42.666;23.366;2024-02-23T00:19:58;14.70;;;12.18;;
40204;SDS011;26963;42.666;23.366;2024-02-23T00:22:24;14.20;;;11.00;;
40204;SDS011;26963;42.666;23.366;2024-02-23T00:24:51;13.85;;;10.88;;
40204;SDS011;26963;42.666;23.366;2024-02-23T00:27:16;15.32;;;11.15;;
40204;SDS011;26963;42.666;23.366;2024-02-23T00:29:42;16.92;;;11.23;;
40204;SDS011;26963;42.666;23.366;2024-02-23T00:32:08;15.57;;;10.60;;
40204;SDS011;26963;42.666;23.366;2024-02-23T00:34:33;13.02;;;10.00;;
40204;SDS011;26963;42.666;23.366;2024-02-23T00:36:59;12.23;;;9.93;;
40204;SDS011;26963;42.666;23.366;2024-02-23T00:39:24;14.80;;;10.55;;
40204;SDS011;26963;42.666;23.366;2024-02-23T00:42:08;16.20;;;11.57;;
40204;SDS011;26963;42.666;23.366;2024-02-23T00:44:34;13.63;;;10.52;;
40204;SDS011;26963;42.666;23.366;2024-02-23T00:47:00;14.00;;;10.75;;
40204;SDS011;26963;42.666;23.366;2024-02-23T00:49:30;13.95;;;11.00;;
40204;SDS011;26963;42.666;23.366;2024-02-23T00:51:56;11.70;;;9.20;;
40204;SDS011;26963;42.666;23.366;2024-02-23T00:54:21;12.93;;;10.23;;
40204;SDS011;26963;42.666;23.366;2024-02-23T00:56:47;12.90;;;10.13;;
40204;SDS011;26963;42.666;23.366;2024-02-23T00:59:13;13.55;;;9.95;;
40204;SDS011;26963;42.666;23.366;2024-02-23T01:01:38;12.93;;;10.43;;
40204;SDS011;26963;42.666;23.366;2024-02-23T01:04:04;13.85;;;9.85;;
40204;SDS011;26963;42.666;23.366;2024-02-23T01:06:29;12.63;;;10.15;;
40204;SDS011;26963;42.666;23.366;2024-02-23T01:08:55;13.40;;;10.30;;
40204;SDS011;26963;42.666;23.366;2024-02-23T01:11:21;15.00;;;10.25;;
40204;SDS011;26963;42.666;23.366;2024-02-23T01:13:46;14.63;;;10.77;;
40204;SDS011;26963;42.666;23.366;2024-02-23T01:16:12;11.82;;;9.82;;
40204;SDS011;26963;42.666;23.366;2024-02-23T01:18:37;14.00;;;9.55;;
40204;SDS011;26963;42.666;23.366;2024-02-23T01:21:04;15.73;;;11.45;;
40204;SDS011;26963;42.666;23.366;2024-02-23T01:23:29;13.48;;;10.32;;
40204;SDS011;26963;42.666;23.366;2024-02-23T01:25:55;12.85;;;10.07;;
40204;SDS011;26963;42.666;23.366;2024-02-23T01:28:20;14.25;;;10.20;;
40204;SDS011;26963;42.666;23.366;2024-02-23T01:30:46;13.23;;;10.20;;
40204;SDS011;26963;42.666;23.366;2024-02-23T01:33:12;12.52;;;9.50;;
40204;SDS011;26963;42.666;23.366;2024-02-23T01:35:38;11.80;;;9.00;;
40204;SDS011;26963;42.666;23.366;2024-02-23T01:38:03;11.55;;;9.88;;
40204;SDS011;26963;42.666;23.366;2024-02-23T01:40:30;14.52;;;10.63;;
40204;SDS011;26963;42.666;23.366;2024-02-23T01:43:05;13.00;;;10.35;;
40204;SDS011;26963;42.666;23.366;2024-02-23T01:45:31;15.10;;;10.95;;
40204;SDS011;26963;42.666;23.366;2024-02-23T01:47:57;15.63;;;10.55;;
40204;SDS011;26963;42.666;23.366;2024-02-23T01:50:23;18.98;;;11.35;;
40204;SDS011;26963;42.666;23.366;2024-02-23T01:52:50;15.25;;;9.98;;
40204;SDS011;26963;42.666;23.366;2024-02-23T01:55:18;13.60;;;10.60;;
40204;SDS011;26963;42.666;23.366;2024-02-23T01:57:45;14.88;;;10.70;;
40204;SDS011;26963;42.666;23.366;2024-02-23T02:00:13;14.75;;;10.82;;
40204;SDS011;26963;42.666;23.366;2024-02-23T02:02:42;13.80;;;10.55;;
40204;SDS011;26963;42.666;23.366;2024-02-23T02:05:09;12.98;;;9.48;;
40204;SDS011;26963;42.666;23.366;2024-02-23T02:07:35;14.77;;;10.63;;
40204;SDS011;26963;42.666;23.366;2024-02-23T02:10:00;14.77;;;10.13;;
40204;SDS011;26963;42.666;23.366;2024-02-23T02:12:29;12.48;;;9.93;;
40204;SDS011;26963;42.666;23.366;2024-02-23T02:14:54;11.50;;;9.73;;
40204;SDS011;26963;42.666;23.366;2024-02-23T02:17:25;12.63;;;9.63;;
40204;SDS011;26963;42.666;23.366;2024-02-23T02:19:51;14.23;;;10.65;;
40204;SDS011;26963;42.666;23.366;2024-02-23T02:22:17;14.70;;;10.70;;
40204;SDS011;26963;42.666;23.366;2024-02-23T02:24:43;13.73;;;9.70;;
40204;SDS011;26963;42.666;23.366;2024-02-23T02:27:11;11.98;;;9.55;;
40204;SDS011;26963;42.666;23.366;2024-02-23T02:29:37;12.70;;;9.65;;
40204;SDS011;26963;42.666;23.366;2024-02-23T02:32:03;13.27;;;10.10;;
40204;SDS011;26963;42.666;23.366;2024-02-23T02:34:29;14.57;;;10.50;;
40204;SDS011;26963;42.666;23.366;2024-02-23T02:36:55;16.88;;;10.13;;
40204;SDS011;26963;42.666;23.366;2024-02-23T02:39:21;14.40;;;9.40;;
40204;SDS011;26963;42.666;23.366;2024-02-23T02:41:50;13.75;;;10.55;;
40204;SDS011;26963;42.666;23.366;2024-02-23T02:44:15;14.23;;;10.82;;
40204;SDS011;26963;42.666;23.366;2024-02-23T02:46:41;12.95;;;10.38;;
40204;SDS011;26963;42.666;23.366;2024-02-23T02:49:07;16.15;;;10.82;;
40204;SDS011;26963;42.666;23.366;2024-02-23T02:51:33;14.73;;;10.02;;
40204;SDS011;26963;42.666;23.366;2024-02-23T02:53:58;13.95;;;10.52;;
40204;SDS011;26963;42.666;23.366;2024-02-23T02:56:24;14.75;;;10.40;;
40204;SDS011;26963;42.666;23.366;2024-02-23T02:58:50;13.65;;;10.45;;
40204;SDS011;26963;42.666;23.366;2024-02-23T03:01:15;13.82;;;11.00;;
40204;SDS011;26963;42.666;23.366;2024-02-23T03:03:41;12.57;;;10.88;;
40204;SDS011;26963;42.666;23.366;2024-02-23T03:06:06;13.95;;;11.25;;
40204;SDS011;26963;42.666;23.366;2024-02-23T03:08:32;14.32;;;10.38;;
40204;SDS011;26963;42.666;23.366;2024-02-23T03:10:58;14.40;;;10.68;;
40204;SDS011;26963;42.666;23.366;2024-02-23T03:13:24;14.02;;;10.35;;
40204;SDS011;26963;42.666;23.366;2024-02-23T03:15:49;13.27;;;10.27;;
40204;SDS011;26963;42.666;23.366;2024-02-23T03:18:15;12.32;;;10.23;;
40204;SDS011;26963;42.666;23.366;2024-02-23T03:20:41;15.90;;;10.48;;
40204;SDS011;26963;42.666;23.366;2024-02-23T03:23:08;14.15;;;10.70;;
40204;SDS011;26963;42.666;23.366;2024-02-23T03:25:34;15.32;;;11.48;;
40204;SDS011;26963;42.666;23.366;2024-02-23T03:28:00;14.00;;;11.82;;
40204;SDS011;26963;42.666;23.366;2024-02-23T03:30:25;18.05;;;11.75;;
40204;SDS011;26963;42.666;23.366;2024-02-23T03:32:51;12.10;;;10.10;;
40204;SDS011;26963;42.666;23.366;2024-02-23T03:35:16;17.08;;;10.30;;
40204;SDS011;26963;42.666;23.366;2024-02-23T03:37:42;16.58;;;11.38;;
40204;SDS011;26963;42.666;23.366;2024-02-23T03:40:08;17.25;;;11.38;;
40204;SDS011;26963;42.666;23.366;2024-02-23T03:42:35;15.75;;;10.68;;
40204;SDS011;26963;42.666;23.366;2024-02-23T03:45:01;12.82;;;10.70;;
40204;SDS011;26963;42.666;23.366;2024-02-23T03:47:27;16.60;;;11.68;;
40204;SDS011;26963;42.666;23.366;2024-02-23T03:49:53;15.70;;;11.52;;
40204;SDS011;26963;42.666;23.366;2024-02-23T03:52:19;14.70;;;11.52;;
40204;SDS011;26963;42.666;23.366;2024-02-23T03:54:45;14.13;;;11.25;;
40204;SDS011;26963;42.666;23.366;2024-02-23T03:57:10;13.20;;;10.60;;
40204;SDS011;26963;42.666;23.366;2024-02-23T03:59:36;13.75;;;11.07;;
40204;SDS011;26963;42.666;23.366;2024-02-23T04:02:02;13.35;;;11.05;;
40204;SDS011;26963;42.666;23.366;2024-02-23T04:04:29;17.73;;;11.20;;
40204;SDS011;26963;42.666;23.366;2024-02-23T04:06:54;12.88;;;9.85;;
40204;SDS011;26963;42.666;23.366;2024-02-23T04:09:20;13.68;;;11.00;;
40204;SDS011;26963;42.666;23.366;2024-02-23T04:11:48;12.02;;;9.25;;
40204;SDS011;26963;42.666;23.366;2024-02-23T04:14:14;17.85;;;11.15;;
40204;SDS011;26963;42.666;23.366;2024-02-23T04:16:39;14.60;;;11.35;;
40204;SDS011;26963;42.666;23.366;2024-02-23T04:19:05;15.30;;;11.68;;
40204;SDS011;26963;42.666;23.366;2024-02-23T04:21:31;15.40;;;11.30;;
40204;SDS011;26963;42.666;23.366;2024-02-23T04:23:57;15.13;;;10.80;;
40204;SDS011;26963;42.666;23.366;2024-02-23T04:26:23;13.95;;;10.88;;
40204;SDS011;26963;42.666;23.366;2024-02-23T04:28:48;13.75;;;10.95;;
40204;SDS011;26963;42.666;23.366;2024-02-23T04:31:14;13.82;;;10.40;;
40204;SDS011;26963;42.666;23.366;2024-02-23T04:33:39;13.95;;;10.13;;
40204;SDS011;26963;42.666;23.366;2024-02-23T04:36:05;14.07;;;11.27;;
40204;SDS011;26963;42.666;23.366;2024-02-23T04:38:34;13.45;;;10.32;;
40204;SDS011;26963;42.666;23.366;2024-02-23T04:41:02;13.65;;;10.55;;
40204;SDS011;26963;42.666;23.366;2024-02-23T04:43:29;13.07;;;10.10;;
40204;SDS011;26963;42.666;23.366;2024-02-23T04:45:54;15.02;;;10.88;;
40204;SDS011;26963;42.666;23.366;2024-02-23T04:48:20;13.15;;;10.50;;
40204;SDS011;26963;42.666;23.366;2024-02-23T04:50:46;13.70;;;10.20;;
40204;SDS011;26963;42.666;23.366;2024-02-23T04:53:11;14.38;;;10.40;;
40204;SDS011;26963;42.666;23.366;2024-02-23T04:55:37;15.23;;;11.25;;
40204;SDS011;26963;42.666;23.366;2024-02-23T04:58:02;15.05;;;10.52;;
40204;SDS011;26963;42.666;23.366;2024-02-23T05:00:28;14.32;;;10.25;;
40204;SDS011;26963;42.666;23.366;2024-02-23T05:03:01;15.07;;;9.98;;
40204;SDS011;26963;42.666;23.366;2024-02-23T05:05:30;14.10;;;10.88;;
40204;SDS011;26963;42.666;23.366;2024-02-23T05:07:56;15.00;;;10.77;;
40204;SDS011;26963;42.666;23.366;2024-02-23T05:10:22;13.52;;;10.43;;
40204;SDS011;26963;42.666;23.366;2024-02-23T05:12:48;14.00;;;11.45;;
40204;SDS011;26963;42.666;23.366;2024-02-23T05:15:14;13.80;;;10.82;;
40204;SDS011;26963;42.666;23.366;2024-02-23T05:17:40;14.57;;;11.30;;
40204;SDS011;26963;42.666;23.366;2024-02-23T05:20:06;12.55;;;10.30;;
40204;SDS011;26963;42.666;23.366;2024-02-23T05:22:37;16.10;;;11.75;;
40204;SDS011;26963;42.666;23.366;2024-02-23T05:25:03;17.92;;;11.98;;
40204;SDS011;26963;42.666;23.366;2024-02-23T05:27:32;16.70;;;12.45;;
40204;SDS011;26963;42.666;23.366;2024-02-23T05:29:58;16.60;;;13.43;;
40204;SDS011;26963;42.666;23.366;2024-02-23T05:32:24;15.55;;;12.15;;
40204;SDS011;26963;42.666;23.366;2024-02-23T05:34:49;17.70;;;11.55;;
40204;SDS011;26963;42.666;23.366;2024-02-23T05:37:18;16.50;;;12.90;;
40204;SDS011;26963;42.666;23.366;2024-02-23T05:39:43;15.85;;;13.25;;
40204;SDS011;26963;42.666;23.366;2024-02-23T05:42:11;16.95;;;13.38;;
40204;SDS011;26963;42.666;23.366;2024-02-23T05:44:38;22.73;;;14.52;;
40204;SDS011;26963;42.666;23.366;2024-02-23T05:47:04;19.98;;;14.10;;
40204;SDS011;26963;42.666;23.366;2024-02-23T05:49:30;22.27;;;14.57;;
40204;SDS011;26963;42.666;23.366;2024-02-23T05:51:55;19.55;;;12.82;;
40204;SDS011;26963;42.666;23.366;2024-02-23T05:54:21;21.80;;;15.30;;
40204;SDS011;26963;42.666;23.366;2024-02-23T05:56:47;18.60;;;13.90;;
40204;SDS011;26963;42.666;23.366;2024-02-23T05:59:12;20.88;;;15.00;;
40204;SDS011;26963;42.666;23.366;2024-02-23T06:01:38;19.58;;;15.38;;
40204;SDS011;26963;42.666;23.366;2024-02-23T06:04:03;22.95;;;14.05;;
40204;SDS011;26963;42.666;23.366;2024-02-23T06:06:29;20.75;;;15.68;;
40204;SDS011;26963;42.666;23.366;2024-02-23T06:08:54;23.98;;;15.07;;
40204;SDS011;26963;42.666;23.366;2024-02-23T06:11:20;20.65;;;15.27;;
40204;SDS011;26963;42.666;23.366;2024-02-23T06:13:46;20.60;;;14.07;;
40204;SDS011;26963;42.666;23.366;2024-02-23T06:16:12;19.02;;;15.52;;
40204;SDS011;26963;42.666;23.366;2024-02-23T06:18:38;21.10;;;15.35;;
40204;SDS011;26963;42.666;23.366;2024-02-23T06:21:15;26.10;;;16.67;;
40204;SDS011;26963;42.666;23.366;2024-02-23T06:23:43;18.52;;;14.45;;
40204;SDS011;26963;42.666;23.366;2024-02-23T06:26:09;19.80;;;13.20;;
40204;SDS011;26963;42.666;23.366;2024-02-23T06:28:36;21.50;;;14.90;;
40204;SDS011;26963;42.666;23.366;2024-02-23T06:31:04;21.75;;;15.35;;
40204;SDS011;26963;42.666;23.366;2024-02-23T06:33:30;24.05;;;16.60;;
40204;SDS011;26963;42.666;23.366;2024-02-23T06:35:56;19.95;;;15.88;;
40204;SDS011;26963;42.666;23.366;2024-02-23T06:38:22;19.38;;;14.45;;
40204;SDS011;26963;42.666;23.366;2024-02-23T06:40:48;22.80;;;14.48;;
40204;SDS011;26963;42.666;23.366;2024-02-23T06:43:13;28.65;;;20.13;;
40204;SDS011;26963;42.666;23.366;2024-02-23T06:45:39;26.35;;;16.67;;
40204;SDS011;26963;42.666;23.366;2024-02-23T06:48:04;25.50;;;17.25;;
40204;SDS011;26963;42.666;23.366;2024-02-23T06:50:30;19.00;;;14.75;;
40204;SDS011;26963;42.666;23.366;2024-02-23T06:52:56;22.70;;;15.23;;
40204;SDS011;26963;42.666;23.366;2024-02-23T06:55:22;23.05;;;15.60;;
40204;SDS011;26963;42.666;23.366;2024-02-23T06:57:47;21.23;;;15.73;;
40204;SDS011;26963;42.666;23.366;2024-02-23T07:00:13;24.13;;;14.80;;
40204;SDS011;26963;42.666;23.366;2024-02-23T07:02:39;22.30;;;16.20;;
40204;SDS011;26963;42.666;23.366;2024-02-23T07:05:05;22.95;;;15.15;;
40204;SDS011;26963;42.666;23.366;2024-02-23T07:07:32;26.92;;;14.18;;
40204;SDS011;26963;42.666;23.366;2024-02-23T07:10:01;22.58;;;15.43;;
40204;SDS011;26963;42.666;23.366;2024-02-23T07:12:27;22.98;;;15.07;;
40204;SDS011;26963;42.666;23.366;2024-02-23T07:14:54;21.77;;;15.88;;
40204;SDS011;26963;42.666;23.366;2024-02-23T07:17:21;19.92;;;14.85;;
40204;SDS011;26963;42.666;23.366;2024-02-23T07:19:47;22.98;;;16.80;;
40204;SDS011;26963;42.666;23.366;2024-02-23T07:22:13;22.10;;;17.17;;
40204;SDS011;26963;42.666;23.366;2024-02-23T07:24:42;22.02;;;16.60;;
40204;SDS011;26963;42.666;23.366;2024-02-23T07:27:08;22.77;;;17.35;;
40204;SDS011;26963;42.666;23.366;2024-02-23T07:29:33;22.45;;;16.50;;
40204;SDS011;26963;42.666;23.366;2024-02-23T07:31:59;23.48;;;16.58;;
40204;SDS011;26963;42.666;23.366;2024-02-23T07:34:25;19.85;;;15.90;;
40204;SDS011;26963;42.666;23.366;2024-02-23T07:36:59;23.83;;;15.80;;
40204;SDS011;26963;42.666;23.366;2024-02-23T07:39:25;25.40;;;16.38;;
40204;SDS011;26963;42.666;23.366;2024-02-23T07:41:52;22.77;;;15.73;;
40204;SDS011;26963;42.666;23.366;2024-02-23T07:44:21;21.45;;;15.82;;
40204;SDS011;26963;42.666;23.366;2024-02-23T07:46:47;23.20;;;14.48;;
40204;SDS011;26963;42.666;23.366;2024-02-23T07:49:12;16.45;;;13.30;;
40204;SDS011;26963;42.666;23.366;2024-02-23T07:51:38;19.83;;;13.82;;
40204;SDS011;26963;42.666;23.366;2024-02-23T07:54:04;17.83;;;11.88;;
40204;SDS011;26963;42.666;23.366;2024-02-23T07:56:30;17.23;;;12.00;;
40204;SDS011;26963;42.666;23.366;2024-02-23T07:58:56;15.98;;;12.77;;
40204;SDS011;26963;42.666;23.366;2024-02-23T08:01:21;13.90;;;11.55;;
40204;SDS011;26963;42.666;23.366;2024-02-23T08:03:47;14.30;;;11.32;;
40204;SDS011;26963;42.666;23.366;2024-02-23T08:06:15;13.25;;;11.63;;
40204;SDS011;26963;42.666;23.366;2024-02-23T08:08:40;14.73;;;11.45;;
40204;SDS011;26963;42.666;23.366;2024-02-23T08:11:06;13.35;;;11.50;;
40204;SDS011;26963;42.666;23.366;2024-02-23T08:13:32;14.52;;;11.00;;
40204;SDS011;26963;42.666;23.366;2024-02-23T08:16:00;16.52;;;11.15;;
40204;SDS011;26963;42.666;23.366;2024-02-23T08:18:25;13.27;;;11.13;;
40204;SDS011;26963;42.666;23.366;2024-02-23T08:20:52;14.38;;;11.57;;
40204;SDS011;26963;42.666;23.366;2024-02-23T08:23:18;15.90;;;12.13;;
40204;SDS011;26963;42.666;23.366;2024-02-23T08:25:52;17.98;;;11.55;;
40204;SDS011;26963;42.666;23.366;2024-02-23T08:28:18;15.98;;;11.98;;
40204;SDS011;26963;42.666;23.366;2024-02-23T08:30:44;17.77;;;12.60;;
40204;SDS011;26963;42.666;23.366;2024-02-23T08:33:10;18.33;;;13.10;;
40204;SDS011;26963;42.666;23.366;2024-02-23T08:35:36;15.73;;;11.95;;
40204;SDS011;26963;42.666;23.366;2024-02-23T08:38:02;21.45;;;12.85;;
40204;SDS011;26963;42.666;23.366;2024-02-23T08:40:27;18.73;;;13.52;;
40204;SDS011;26963;42.666;23.366;2024-02-23T08:42:53;18.33;;;12.77;;
40204;SDS011;26963;42.666;23.366;2024-02-23T08:45:18;17.30;;;13.80;;
40204;SDS011;26963;42.666;23.366;2024-02-23T08:47:44;18.17;;;11.75;;
40204;SDS011;26963;42.666;23.366;2024-02-23T08:50:10;16.30;;;11.57;;
40204;SDS011;26963;42.666;23.366;2024-02-23T08:52:35;16.05;;;11.65;;
40204;SDS011;26963;42.666;23.366;2024-02-23T08:55:01;14.77;;;10.90;;
40204;SDS011;26963;42.666;23.366;2024-02-23T08:57:27;16.75;;;11.50;;
40204;SDS011;26963;42.666;23.366;2024-02-23T08:59:53;15.70;;;11.30;;
40204;SDS011;26963;42.666;23.366;2024-02-23T09:02:19;13.65;;;9.95;;
40204;SDS011;26963;42.666;23.366;2024-02-23T09:04:45;13.85;;;10.57;;
40204;SDS011;26963;42.666;23.366;2024-02-23T09:07:11;13.82;;;10.65;;
40204;SDS011;26963;42.666;23.366;2024-02-23T09:09:37;12.43;;;10.02;;
40204;SDS011;26963;42.666;23.366;2024-02-23T09:12:03;13.15;;;10.10;;
40204;SDS011;26963;42.666;23.366;2024-02-23T09:14:29;15.02;;;10.45;;
40204;SDS011;26963;42.666;23.366;2024-02-23T09:16:54;12.40;;;9.98;;
40204;SDS011;26963;42.666;23.366;2024-02-23T09:19:20;14.43;;;10.05;;
40204;SDS011;26963;42.666;23.366;2024-02-23T09:21:46;13.32;;;9.85;;
40204;SDS011;26963;42.666;23.366;2024-02-23T09:24:12;15.07;;;9.75;;
40204;SDS011;26963;42.666;23.366;2024-02-23T09:26:37;13.45;;;9.95;;
40204;SDS011;26963;42.666;23.366;2024-02-23T09:29:04;11.57;;;9.13;;
40204;SDS011;26963;42.666;23.366;2024-02-23T09:31:30;13.73;;;8.60;;
40204;SDS011;26963;42.666;23.366;2024-02-23T09:33:57;11.88;;;8.77;;
40204;SDS011;26963;42.666;23.366;2024-02-23T09:36:23;12.13;;;7.55;;
40204;SDS011;26963;42.666;23.366;2024-02-23T09:38:50;12.50;;;8.05;;
40204;SDS011;26963;42.666;23.366;2024-02-23T09:41:19;10.48;;;7.70;;
40204;SDS011;26963;42.666;23.366;2024-02-23T09:43:46;9.48;;;7.40;;
40204;SDS011;26963;42.666;23.366;2024-02-23T09:46:16;11.48;;;7.63;;
40204;SDS011;26963;42.666;23.366;2024-02-23T09:48:43;11.10;;;7.53;;
40204;SDS011;26963;42.666;23.366;2024-02-23T09:51:10;11.48;;;8.07;;
40204;SDS011;26963;42.666;23.366;2024-02-23T09:53:37;11.18;;;7.15;;
40204;SDS011;26963;42.666;23.366;2024-02-23T09:56:03;7.50;;;5.68;;
40204;SDS011;26963;42.666;23.366;2024-02-23T09:58:31;9.25;;;5.20;;
40204;SDS011;26963;42.666;23.366;2024-02-23T10:00:58;7.15;;;5.50;;
40204;SDS011;26963;42.666;23.366;2024-02-23T10:03:25;7.78;;;5.60;;
40204;SDS011;26963;42.666;23.366;2024-02-23T10:05:53;7.32;;;5.30;;
40204;SDS011;26963;42.666;23.366;2024-02-23T10:08:19;7.28;;;5.18;;
40204;SDS011;26963;42.666;23.366;2024-02-23T10:10:54;8.02;;;5.40;;
40204;SDS011;26963;42.666;23.366;2024-02-23T10:13:21;7.90;;;4.35;;
40204;SDS011;26963;42.666;23.366;2024-02-23T10:15:49;7.00;;;5.15;;
40204;SDS011;26963;42.666;23.366;2024-02-23T10:18:16;6.07;;;4.63;;
40204;SDS011;26963;42.666;23.366;2024-02-23T10:20:44;5.45;;;4.20;;
40204;SDS011;26963;42.666;23.366;2024-02-23T10:23:12;6.68;;;4.00;;
40204;SDS011;26963;42.666;23.366;2024-02-23T10:25:38;5.60;;;3.92;;
40204;SDS011;26963;42.666;23.366;2024-02-23T10:28:05;5.97;;;3.60;;
40204;SDS011;26963;42.666;23.366;2024-02-23T10:30:32;10.43;;;6.90;;
40204;SDS011;26963;42.666;23.366;2024-02-23T10:32:58;9.25;;;6.57;;
40204;SDS011;26963;42.666;23.366;2024-02-23T10:35:24;7.30;;;4.60;;
40204;SDS011;26963;42.666;23.366;2024-02-23T10:37:52;6.85;;;3.53;;
40204;SDS011;26963;42.666;23.366;2024-02-23T10:40:20;5.47;;;3.58;;
40204;SDS011;26963;42.666;23.366;2024-02-23T10:42:47;5.53;;;3.28;;
40204;SDS011;26963;42.666;23.366;2024-02-23T10:45:20;7.07;;;3.30;;
40204;SDS011;26963;42.666;23.366;2024-02-23T10:47:49;6.60;;;3.72;;
40204;SDS011;26963;42.666;23.366;2024-02-23T10:50:15;6.43;;;4.15;;
40204;SDS011;26963;42.666;23.366;2024-02-23T10:52:44;6.47;;;4.15;;
40204;SDS011;26963;42.666;23.366;2024-02-23T10:55:12;6.05;;;3.35;;
40204;SDS011;26963;42.666;23.366;2024-02-23T10:57:37;5.35;;;3.40;;
40204;SDS011;26963;42.666;23.366;2024-02-23T11:00:07;5.90;;;3.92;;
40204;SDS011;26963;42.666;23.366;2024-02-23T11:02:41;5.78;;;4.00;;
40204;SDS011;26963;42.666;23.366;2024-02-23T11:05:10;6.38;;;4.32;;
40204;SDS011;26963;42.666;23.366;2024-02-23T11:07:38;8.48;;;3.45;;
40204;SDS011;26963;42.666;23.366;2024-02-23T11:10:07;5.72;;;4.05;;
40204;SDS011;26963;42.666;23.366;2024-02-23T11:12:34;5.82;;;3.95;;
40204;SDS011;26963;42.666;23.366;2024-02-23T11:15:00;4.43;;;3.03;;
40204;SDS011;26963;42.666;23.366;2024-02-23T11:17:27;5.15;;;2.67;;
40204;SDS011;26963;42.666;23.366;2024-02-23T11:19:54;4.85;;;2.80;;
40204;SDS011;26963;42.666;23.366;2024-02-23T11:22:24;4.13;;;2.85;;
40204;SDS011;26963;42.666;23.366;2024-02-23T11:24:51;3.38;;;2.20;;
40204;SDS011;26963;42.666;23.366;2024-02-23T11:27:17;12.27;;;6.50;;
40204;SDS011;26963;42.666;23.366;2024-02-23T11:29:45;5.35;;;2.90;;
40204;SDS011;26963;42.666;23.366;2024-02-23T11:32:12;4.80;;;2.38;;
40204;SDS011;26963;42.666;23.366;2024-02-23T11:34:41;2.60;;;2.00;;
40204;SDS011;26963;42.666;23.366;2024-02-23T11:37:09;3.47;;;2.42;;
40204;SDS011;26963;42.666;23.366;2024-02-23T11:39:38;3.83;;;2.47;;
40204;SDS011;26963;42.666;23.366;2024-02-23T11:42:07;5.75;;;2.25;;
40204;SDS011;26963;42.666;23.366;2024-02-23T11:44:34;4.95;;;2.15;;
40204;SDS011;26963;42.666;23.366;2024-02-23T11:46:59;3.15;;;2.25;;
40204;SDS011;26963;42.666;23.366;2024-02-23T11:49:28;7.70;;;2.83;;
40204;SDS011;26963;42.666;23.366;2024-02-23T11:51:54;4.68;;;2.58;;
40204;SDS011;26963;42.666;23.366;2024-02-23T11:54:21;3.88;;;3.00;;
40204;SDS011;26963;42.666;23.366;2024-02-23T11:56:47;5.47;;;3.40;;
40204;SDS011;26963;42.666;23.366;2024-02-23T11:59:15;5.93;;;3.20;;
40204;SDS011;26963;42.666;23.366;2024-02-23T12:01:41;4.93;;;2.95;;
40204;SDS011;26963;42.666;23.366;2024-02-23T12:04:07;4.88;;;2.63;;
40204;SDS011;26963;42.666;23.366;2024-02-23T12:06:33;3.65;;;2.58;;
40204;SDS011;26963;42.666;23.366;2024-02-23T12:08:59;3.85;;;2.70;;
40204;SDS011;26963;42.666;23.366;2024-02-23T12:11:25;3.67;;;2.30;;
40204;SDS011;26963;42.666;23.366;2024-02-23T12:13:52;4.05;;;2.60;;
40204;SDS011;26963;42.666;23.366;2024-02-23T12:16:20;3.65;;;2.50;;
40204;SDS011;26963;42.666;23.366;2024-02-23T12:18:46;4.07;;;2.60;;
40204;SDS011;26963;42.666;23.366;2024-02-23T12:21:18;4.00;;;2.53;;
40204;SDS011;26963;42.666;23.366;2024-02-23T12:23:44;5.88;;;3.20;;
40204;SDS011;26963;42.666;23.366;2024-02-23T12:26:11;5.20;;;3.33;;
40204;SDS011;26963;42.666;23.366;2024-02-23T12:28:38;4.93;;;2.55;;
40204;SDS011;26963;42.666;23.366;2024-02-23T12:31:05;3.58;;;2.38;;
40204;SDS011;26963;42.666;23.366;2024-02-23T12:33:31;3.67;;;2.55;;
40204;SDS011;26963;42.666;23.366;2024-02-23T12:35:59;4.45;;;2.00;;
40204;SDS011;26963;42.666;23.366;2024-02-23T12:38:25;2.97;;;1.90;;
40204;SDS011;26963;42.666;23.366;2024-02-23T12:40:51;3.03;;;2.10;;
40204;SDS011;26963;42.666;23.366;2024-02-23T12:43:17;3.30;;;2.10;;
40204;SDS011;26963;42.666;23.366;2024-02-23T12:45:43;3.13;;;2.20;;
40204;SDS011;26963;42.666;23.366;2024-02-23T12:48:10;6.40;;;4.68;;
40204;SDS011;26963;42.666;23.366;2024-02-23T12:50:36;7.03;;;5.40;;
40204;SDS011;26963;42.666;23.366;2024-02-23T12:53:02;8.35;;;7.22;;
40204;SDS011;26963;42.666;23.366;2024-02-23T12:55:29;4.70;;;2.83;;
40204;SDS011;26963;42.666;23.366;2024-02-23T12:57:54;4.88;;;2.50;;
40204;SDS011;26963;42.666;23.366;2024-02-23T13:00:20;4.05;;;2.17;;
40204;SDS011;26963;42.666;23.366;2024-02-23T13:02:46;3.65;;;2.30;;
40204;SDS011;26963;42.666;23.366;2024-02-23T13:05:12;3.42;;;2.28;;
40204;SDS011;26963;42.666;23.366;2024-02-23T13:07:37;5.57;;;2.30;;
40204;SDS011;26963;42.666;23.366;2024-02-23T13:10:05;2.97;;;1.90;;
40204;SDS011;26963;42.666;23.366;2024-02-23T13:12:32;6.43;;;2.15;;
40204;SDS011;26963;42.666;23.366;2024-02-23T13:14:58;6.63;;;2.40;;
40204;SDS011;26963;42.666;23.366;2024-02-23T13:17:23;3.38;;;2.20;;
40204;SDS011;26963;42.666;23.366;2024-02-23T13:19:49;7.13;;;2.47;;
40204;SDS011;26963;42.666;23.366;2024-02-23T13:22:15;4.25;;;2.22;;
40204;SDS011;26963;42.666;23.366;2024-02-23T13:24:41;4.38;;;2.50;;
40204;SDS011;26963;42.666;23.366;2024-02-23T13:27:06;5.82;;;2.55;;
40204;SDS011;26963;42.666;23.366;2024-02-23T13:29:32;4.90;;;2.33;;
40204;SDS011;26963;42.666;23.366;2024-02-23T13:32:00;5.63;;;2.10;;
40204;SDS011;26963;42.666;23.366;2024-02-23T13:34:26;7.65;;;2.78;;
40204;SDS011;26963;42.666;23.366;2024-02-23T13:36:52;4.35;;;2.40;;
40204;SDS011;26963;42.666;23.366;2024-02-23T13:39:17;4.30;;;2.42;;
40204;SDS011;26963;42.666;23.366;2024-02-23T13:41:44;5.80;;;3.55;;
40204;SDS011;26963;42.666;23.366;2024-02-23T13:44:09;3.85;;;2.30;;
40204;SDS011;26963;42.666;23.366;2024-02-23T13:46:35;3.03;;;2.15;;
40204;SDS011;26963;42.666;23.366;2024-02-23T13:49:04;2.88;;;1.95;;
40204;SDS011;26963;42.666;23.366;2024-02-23T13:51:34;4.28;;;2.10;;
40204;SDS011;26963;42.666;23.366;2024-02-23T13:54:00;3.85;;;2.65;;
40204;SDS011;26963;42.666;23.366;2024-02-23T13:56:26;5.07;;;2.35;;
40204;SDS011;26963;42.666;23.366;2024-02-23T13:58:51;4.35;;;2.40;;
40204;SDS011;26963;42.666;23.366;2024-02-23T14:01:17;5.97;;;2.60;;
40204;SDS011;26963;42.666;23.366;2024-02-23T14:03:43;3.25;;;2.45;;
40204;SDS011;26963;42.666;23.366;2024-02-23T14:06:24;3.28;;;2.20;;
40204;SDS011;26963;42.666;23.366;2024-02-23T14:08:52;4.22;;;2.30;;
40204;SDS011;26963;42.666;23.366;2024-02-23T14:11:20;3.90;;;2.17;;
40204;SDS011;26963;42.666;23.366;2024-02-23T14:13:46;4.25;;;2.60;;